الصفحة الرئيسية
METAR-TAF:

METAR-TAF

مطار :

أرومية, إيران

دائرة عرض: 37-32N, خط طول: 045-05E, ارتفاع: 1297 متر

مراقبة الطقس الحالي

تاريخ ووقت الإصدار 29 دقيقة قبل الساعة 03:30UTC
ريح 4 عقدة من الغرب/الشمال الغربي
درجة الحرارة 20°درجة مئوية
الرطوبة 56%
ضغط 1020 hPa
الرؤية 10 كم أو أكثر
الغيوم لا تقل 1500 م ولا وجود لمزنة ركامية السحاب الأسود

METAR: OITR 190330Z 30004KT CAVOK 20/11 Q1019 A3011

زمن: 08:29 (03:59 UTC)

توقعات

تاريخ ووقت الإصدار 4ساعات و 59 دقيقة قبل الساعة 23:00UTC
التوقعات صالحة من19 الساعة 00 UTC إلى 20 الساعة 06 UTC
ريح 7 عقدة من الشرق/الشمال الشرقي
الرؤية: 8000 متر
مؤقت
من 19 الساعة 06 UTC إلى 19 الساعة 15 UTC
ريح 10 عقدة من الشرق تتزايد حتى 20 عقدة
غيوم قليلة على ارتفاع 3000 قدم, مزنة ركامية.
غيوم متفرقة على ارتفاع 3500 قدم

TAF: OITR 182300Z 1900/2006 07007KT 8000 NSC TEMPO 1906/1915 08010G20KT FEW030CB SCT035

أرصاد الطقس والتوقعات من أكثر من 4000 مطار (تقارير الطقس للمطار METAR والتنبؤ بالطقس بالمطارTAF).

المحطات المتاحة هي النقط الصفراء والحمراء على الخريطة.

حرك المؤشر فوق النقطة لمعرفة اسم المحطة.

ثم انقر لمعرفة أرصاد وتوقعات الطقس.

لتغيير الخارطة: اضغط على الأزرار الخضراء مع رمز الصليب الأسود للتكبير. على الزر الأخضر مع شرطة للتصغير، أو على الأسهم الخضراء للخرائط المجاورة.


METAR-TAF: